sensor_id;sensor_type;location;lat;lon;timestamp;P1;durP1;ratioP1;P2;durP2;ratioP2
74213;SDS011;62576;55.694;37.494;2022-11-02T00:02:20;8.90;;;3.55;;
74213;SDS011;62576;55.694;37.494;2022-11-02T00:04:51;9.35;;;3.47;;
74213;SDS011;62576;55.694;37.494;2022-11-02T00:07:20;14.73;;;3.92;;
74213;SDS011;62576;55.694;37.494;2022-11-02T00:09:51;9.25;;;3.83;;
74213;SDS011;62576;55.694;37.494;2022-11-02T00:12:21;8.30;;;3.88;;
74213;SDS011;62576;55.694;37.494;2022-11-02T00:14:52;11.02;;;3.90;;
74213;SDS011;62576;55.694;37.494;2022-11-02T00:17:22;10.20;;;3.95;;
74213;SDS011;62576;55.694;37.494;2022-11-02T00:19:52;12.82;;;4.40;;
74213;SDS011;62576;55.694;37.494;2022-11-02T00:22:22;12.20;;;3.85;;
74213;SDS011;62576;55.694;37.494;2022-11-02T00:24:52;12.32;;;3.88;;
74213;SDS011;62576;55.694;37.494;2022-11-02T00:27:22;10.40;;;4.00;;
74213;SDS011;62576;55.694;37.494;2022-11-02T00:29:54;9.48;;;4.20;;
74213;SDS011;62576;55.694;37.494;2022-11-02T00:32:24;14.23;;;4.15;;
74213;SDS011;62576;55.694;37.494;2022-11-02T00:34:54;13.00;;;4.20;;
74213;SDS011;62576;55.694;37.494;2022-11-02T00:37:24;15.98;;;4.85;;
74213;SDS011;62576;55.694;37.494;2022-11-02T00:39:54;12.60;;;4.28;;
74213;SDS011;62576;55.694;37.494;2022-11-02T00:42:24;12.05;;;4.22;;
74213;SDS011;62576;55.694;37.494;2022-11-02T00:44:57;13.32;;;4.20;;
74213;SDS011;62576;55.694;37.494;2022-11-02T00:47:27;12.80;;;4.15;;
74213;SDS011;62576;55.694;37.494;2022-11-02T00:49:56;9.60;;;3.85;;
74213;SDS011;62576;55.694;37.494;2022-11-02T00:52:26;12.27;;;4.43;;
74213;SDS011;62576;55.694;37.494;2022-11-02T00:54:56;9.48;;;3.90;;
74213;SDS011;62576;55.694;37.494;2022-11-02T00:57:26;12.80;;;4.00;;
74213;SDS011;62576;55.694;37.494;2022-11-02T00:59:57;12.73;;;4.35;;
74213;SDS011;62576;55.694;37.494;2022-11-02T01:02:27;15.30;;;4.55;;
74213;SDS011;62576;55.694;37.494;2022-11-02T01:05:00;15.38;;;5.43;;
74213;SDS011;62576;55.694;37.494;2022-11-02T01:07:30;11.32;;;4.97;;
74213;SDS011;62576;55.694;37.494;2022-11-02T01:10:00;17.25;;;6.60;;
74213;SDS011;62576;55.694;37.494;2022-11-02T01:12:30;14.45;;;6.18;;
74213;SDS011;62576;55.694;37.494;2022-11-02T01:15:02;14.93;;;5.32;;
74213;SDS011;62576;55.694;37.494;2022-11-02T01:17:33;12.45;;;4.53;;
74213;SDS011;62576;55.694;37.494;2022-11-02T01:20:03;10.70;;;4.28;;
74213;SDS011;62576;55.694;37.494;2022-11-02T01:22:35;12.77;;;4.30;;
74213;SDS011;62576;55.694;37.494;2022-11-02T01:25:05;9.35;;;4.10;;
74213;SDS011;62576;55.694;37.494;2022-11-02T01:27:36;11.02;;;3.95;;
74213;SDS011;62576;55.694;37.494;2022-11-02T01:30:08;10.88;;;4.10;;
74213;SDS011;62576;55.694;37.494;2022-11-02T01:32:39;9.05;;;4.30;;
74213;SDS011;62576;55.694;37.494;2022-11-02T01:35:09;10.70;;;4.20;;
74213;SDS011;62576;55.694;37.494;2022-11-02T01:37:40;12.27;;;4.22;;
74213;SDS011;62576;55.694;37.494;2022-11-02T01:40:10;9.25;;;3.72;;
74213;SDS011;62576;55.694;37.494;2022-11-02T01:42:40;11.90;;;3.85;;
74213;SDS011;62576;55.694;37.494;2022-11-02T01:45:11;12.52;;;4.13;;
74213;SDS011;62576;55.694;37.494;2022-11-02T01:47:43;9.77;;;3.75;;
74213;SDS011;62576;55.694;37.494;2022-11-02T01:50:18;12.63;;;4.18;;
74213;SDS011;62576;55.694;37.494;2022-11-02T01:52:52;8.98;;;3.78;;
74213;SDS011;62576;55.694;37.494;2022-11-02T01:55:24;12.05;;;4.53;;
74213;SDS011;62576;55.694;37.494;2022-11-02T01:57:59;11.07;;;3.70;;
74213;SDS011;62576;55.694;37.494;2022-11-02T02:00:34;10.23;;;3.90;;
74213;SDS011;62576;55.694;37.494;2022-11-02T02:03:06;15.93;;;3.60;;
74213;SDS011;62576;55.694;37.494;2022-11-02T02:05:38;12.32;;;4.40;;
74213;SDS011;62576;55.694;37.494;2022-11-02T02:08:10;13.68;;;4.88;;
74213;SDS011;62576;55.694;37.494;2022-11-02T02:10:43;10.43;;;4.15;;
74213;SDS011;62576;55.694;37.494;2022-11-02T02:13:13;11.85;;;3.90;;
74213;SDS011;62576;55.694;37.494;2022-11-02T02:15:48;10.60;;;3.80;;
74213;SDS011;62576;55.694;37.494;2022-11-02T02:18:25;10.73;;;3.10;;
74213;SDS011;62576;55.694;37.494;2022-11-02T02:21:03;8.60;;;3.45;;
74213;SDS011;62576;55.694;37.494;2022-11-02T02:23:59;11.30;;;3.97;;
74213;SDS011;62576;55.694;37.494;2022-11-02T02:29:48;8.90;;;3.30;;
74213;SDS011;62576;55.694;37.494;2022-11-02T02:32:24;6.25;;;3.17;;
74213;SDS011;62576;55.694;37.494;2022-11-02T02:35:00;10.93;;;3.55;;
74213;SDS011;62576;55.694;37.494;2022-11-02T02:37:39;12.00;;;3.67;;
74213;SDS011;62576;55.694;37.494;2022-11-02T02:40:15;9.57;;;3.95;;
74213;SDS011;62576;55.694;37.494;2022-11-02T02:42:50;12.95;;;3.67;;
74213;SDS011;62576;55.694;37.494;2022-11-02T02:45:25;10.65;;;3.25;;
74213;SDS011;62576;55.694;37.494;2022-11-02T02:48:02;7.50;;;3.17;;
74213;SDS011;62576;55.694;37.494;2022-11-02T02:50:39;10.35;;;3.20;;
74213;SDS011;62576;55.694;37.494;2022-11-02T02:53:15;9.15;;;3.28;;
74213;SDS011;62576;55.694;37.494;2022-11-02T02:55:49;12.75;;;3.80;;
74213;SDS011;62576;55.694;37.494;2022-11-02T02:58:21;11.98;;;3.22;;
74213;SDS011;62576;55.694;37.494;2022-11-02T03:00:55;10.13;;;3.55;;
74213;SDS011;62576;55.694;37.494;2022-11-02T03:03:27;10.35;;;3.63;;
74213;SDS011;62576;55.694;37.494;2022-11-02T03:06:01;9.63;;;3.17;;
74213;SDS011;62576;55.694;37.494;2022-11-02T03:08:36;9.43;;;3.72;;
74213;SDS011;62576;55.694;37.494;2022-11-02T03:11:11;6.97;;;3.05;;
74213;SDS011;62576;55.694;37.494;2022-11-02T03:13:46;9.52;;;3.40;;
74213;SDS011;62576;55.694;37.494;2022-11-02T03:19:08;8.05;;;3.40;;
74213;SDS011;62576;55.694;37.494;2022-11-02T03:21:44;8.63;;;3.50;;
74213;SDS011;62576;55.694;37.494;2022-11-02T03:24:24;10.30;;;3.50;;
74213;SDS011;62576;55.694;37.494;2022-11-02T03:27:03;9.32;;;3.45;;
74213;SDS011;62576;55.694;37.494;2022-11-02T03:29:42;7.25;;;3.08;;
74213;SDS011;62576;55.694;37.494;2022-11-02T03:32:21;7.28;;;2.85;;
74213;SDS011;62576;55.694;37.494;2022-11-02T03:34:56;6.95;;;3.03;;
74213;SDS011;62576;55.694;37.494;2022-11-02T03:37:29;9.40;;;3.30;;
74213;SDS011;62576;55.694;37.494;2022-11-02T03:40:04;7.15;;;3.00;;
74213;SDS011;62576;55.694;37.494;2022-11-02T03:42:39;8.90;;;3.15;;
74213;SDS011;62576;55.694;37.494;2022-11-02T03:45:11;7.55;;;3.13;;
74213;SDS011;62576;55.694;37.494;2022-11-02T03:47:45;9.52;;;3.28;;
74213;SDS011;62576;55.694;37.494;2022-11-02T03:50:18;8.20;;;3.35;;
74213;SDS011;62576;55.694;37.494;2022-11-02T03:52:52;10.10;;;3.20;;
74213;SDS011;62576;55.694;37.494;2022-11-02T03:55:27;7.70;;;2.90;;
74213;SDS011;62576;55.694;37.494;2022-11-02T03:58:01;9.25;;;3.30;;
74213;SDS011;62576;55.694;37.494;2022-11-02T04:00:32;9.38;;;3.35;;
74213;SDS011;62576;55.694;37.494;2022-11-02T04:03:04;9.60;;;3.30;;
74213;SDS011;62576;55.694;37.494;2022-11-02T04:05:35;9.10;;;4.10;;
74213;SDS011;62576;55.694;37.494;2022-11-02T04:08:05;9.73;;;3.40;;
74213;SDS011;62576;55.694;37.494;2022-11-02T04:10:49;10.10;;;3.33;;
74213;SDS011;62576;55.694;37.494;2022-11-02T04:13:38;9.80;;;3.58;;
74213;SDS011;62576;55.694;37.494;2022-11-02T04:16:25;12.35;;;3.78;;
74213;SDS011;62576;55.694;37.494;2022-11-02T04:18:57;13.35;;;3.97;;
74213;SDS011;62576;55.694;37.494;2022-11-02T04:21:45;9.05;;;3.65;;
74213;SDS011;62576;55.694;37.494;2022-11-02T04:24:29;9.50;;;3.78;;
74213;SDS011;62576;55.694;37.494;2022-11-02T04:27:17;9.25;;;3.53;;
74213;SDS011;62576;55.694;37.494;2022-11-02T04:29:47;7.70;;;3.70;;
74213;SDS011;62576;55.694;37.494;2022-11-02T04:32:17;7.90;;;3.22;;
74213;SDS011;62576;55.694;37.494;2022-11-02T04:35:10;10.93;;;4.03;;
74213;SDS011;62576;55.694;37.494;2022-11-02T04:37:39;8.60;;;3.88;;
74213;SDS011;62576;55.694;37.494;2022-11-02T04:40:27;11.40;;;3.65;;
74213;SDS011;62576;55.694;37.494;2022-11-02T04:42:54;10.23;;;3.80;;
74213;SDS011;62576;55.694;37.494;2022-11-02T04:45:24;12.38;;;4.00;;
74213;SDS011;62576;55.694;37.494;2022-11-02T04:47:58;11.80;;;4.25;;
74213;SDS011;62576;55.694;37.494;2022-11-02T04:50:30;10.38;;;4.13;;
74213;SDS011;62576;55.694;37.494;2022-11-02T04:53:01;8.90;;;3.40;;
74213;SDS011;62576;55.694;37.494;2022-11-02T04:55:33;11.52;;;4.22;;
74213;SDS011;62576;55.694;37.494;2022-11-02T04:58:03;9.68;;;3.50;;
74213;SDS011;62576;55.694;37.494;2022-11-02T05:00:33;8.55;;;3.40;;
74213;SDS011;62576;55.694;37.494;2022-11-02T05:03:04;9.02;;;4.20;;
74213;SDS011;62576;55.694;37.494;2022-11-02T05:05:37;12.57;;;3.92;;
74213;SDS011;62576;55.694;37.494;2022-11-02T05:08:08;9.23;;;3.83;;
74213;SDS011;62576;55.694;37.494;2022-11-02T05:10:38;9.23;;;3.70;;
74213;SDS011;62576;55.694;37.494;2022-11-02T05:13:08;12.38;;;4.78;;
74213;SDS011;62576;55.694;37.494;2022-11-02T05:15:39;14.38;;;5.03;;
74213;SDS011;62576;55.694;37.494;2022-11-02T05:18:09;12.25;;;4.80;;
74213;SDS011;62576;55.694;37.494;2022-11-02T05:20:40;13.75;;;4.32;;
74213;SDS011;62576;55.694;37.494;2022-11-02T05:23:13;11.45;;;4.50;;
74213;SDS011;62576;55.694;37.494;2022-11-02T05:25:50;11.52;;;3.80;;
74213;SDS011;62576;55.694;37.494;2022-11-02T05:28:22;12.40;;;3.95;;
74213;SDS011;62576;55.694;37.494;2022-11-02T05:30:53;11.10;;;3.90;;
74213;SDS011;62576;55.694;37.494;2022-11-02T05:33:26;13.05;;;5.32;;
74213;SDS011;62576;55.694;37.494;2022-11-02T05:35:58;21.27;;;9.32;;
74213;SDS011;62576;55.694;37.494;2022-11-02T05:38:28;17.40;;;7.93;;
74213;SDS011;62576;55.694;37.494;2022-11-02T05:40:59;22.33;;;8.13;;
74213;SDS011;62576;55.694;37.494;2022-11-02T05:43:30;14.98;;;6.72;;
74213;SDS011;62576;55.694;37.494;2022-11-02T05:46:00;15.75;;;6.28;;
74213;SDS011;62576;55.694;37.494;2022-11-02T05:48:32;14.45;;;4.82;;
74213;SDS011;62576;55.694;37.494;2022-11-02T05:51:04;17.15;;;5.68;;
74213;SDS011;62576;55.694;37.494;2022-11-02T05:56:06;18.05;;;5.32;;
74213;SDS011;62576;55.694;37.494;2022-11-02T05:58:38;9.30;;;4.38;;
74213;SDS011;62576;55.694;37.494;2022-11-02T06:01:09;12.25;;;4.50;;
74213;SDS011;62576;55.694;37.494;2022-11-02T06:03:40;14.65;;;4.57;;
74213;SDS011;62576;55.694;37.494;2022-11-02T06:06:11;12.23;;;4.50;;
74213;SDS011;62576;55.694;37.494;2022-11-02T06:08:42;12.05;;;4.95;;
74213;SDS011;62576;55.694;37.494;2022-11-02T06:11:13;12.38;;;4.55;;
74213;SDS011;62576;55.694;37.494;2022-11-02T06:13:47;15.10;;;4.85;;
74213;SDS011;62576;55.694;37.494;2022-11-02T06:16:19;13.23;;;4.60;;
74213;SDS011;62576;55.694;37.494;2022-11-02T06:18:51;13.95;;;4.63;;
74213;SDS011;62576;55.694;37.494;2022-11-02T06:21:22;10.55;;;4.10;;
74213;SDS011;62576;55.694;37.494;2022-11-02T06:23:52;10.23;;;4.38;;
74213;SDS011;62576;55.694;37.494;2022-11-02T06:26:22;10.88;;;4.43;;
74213;SDS011;62576;55.694;37.494;2022-11-02T06:28:53;16.10;;;4.90;;
74213;SDS011;62576;55.694;37.494;2022-11-02T06:31:23;14.43;;;5.35;;
74213;SDS011;62576;55.694;37.494;2022-11-02T06:33:52;13.80;;;5.22;;
74213;SDS011;62576;55.694;37.494;2022-11-02T06:36:29;15.02;;;6.38;;
74213;SDS011;62576;55.694;37.494;2022-11-02T06:39:01;16.83;;;5.00;;
74213;SDS011;62576;55.694;37.494;2022-11-02T06:41:33;15.57;;;4.97;;
74213;SDS011;62576;55.694;37.494;2022-11-02T06:44:03;17.70;;;5.18;;
74213;SDS011;62576;55.694;37.494;2022-11-02T06:46:36;16.02;;;5.40;;
74213;SDS011;62576;55.694;37.494;2022-11-02T06:49:06;19.95;;;6.00;;
74213;SDS011;62576;55.694;37.494;2022-11-02T06:51:38;15.27;;;4.85;;
74213;SDS011;62576;55.694;37.494;2022-11-02T06:54:08;11.27;;;4.90;;
74213;SDS011;62576;55.694;37.494;2022-11-02T06:56:38;12.40;;;4.70;;
74213;SDS011;62576;55.694;37.494;2022-11-02T06:59:09;15.88;;;4.55;;
74213;SDS011;62576;55.694;37.494;2022-11-02T07:01:39;13.10;;;4.70;;
74213;SDS011;62576;55.694;37.494;2022-11-02T07:04:09;15.20;;;5.22;;
74213;SDS011;62576;55.694;37.494;2022-11-02T07:06:41;17.83;;;5.50;;
74213;SDS011;62576;55.694;37.494;2022-11-02T07:09:12;15.80;;;5.20;;
74213;SDS011;62576;55.694;37.494;2022-11-02T07:11:42;13.68;;;5.07;;
74213;SDS011;62576;55.694;37.494;2022-11-02T07:14:12;14.20;;;4.85;;
74213;SDS011;62576;55.694;37.494;2022-11-02T07:16:42;15.65;;;5.20;;
74213;SDS011;62576;55.694;37.494;2022-11-02T07:19:15;15.75;;;5.63;;
74213;SDS011;62576;55.694;37.494;2022-11-02T07:21:46;14.43;;;5.75;;
74213;SDS011;62576;55.694;37.494;2022-11-02T07:24:19;16.23;;;6.38;;
74213;SDS011;62576;55.694;37.494;2022-11-02T07:26:49;17.52;;;7.03;;
74213;SDS011;62576;55.694;37.494;2022-11-02T07:29:19;13.70;;;6.50;;
74213;SDS011;62576;55.694;37.494;2022-11-02T07:31:49;17.13;;;6.63;;
74213;SDS011;62576;55.694;37.494;2022-11-02T07:34:19;18.30;;;6.88;;
74213;SDS011;62576;55.694;37.494;2022-11-02T07:36:51;21.27;;;6.88;;
74213;SDS011;62576;55.694;37.494;2022-11-02T07:39:21;18.08;;;8.25;;
74213;SDS011;62576;55.694;37.494;2022-11-02T07:41:48;21.80;;;9.43;;
74213;SDS011;62576;55.694;37.494;2022-11-02T07:44:18;17.17;;;7.90;;
74213;SDS011;62576;55.694;37.494;2022-11-02T07:46:48;16.08;;;7.80;;
74213;SDS011;62576;55.694;37.494;2022-11-02T07:49:18;22.33;;;8.45;;
74213;SDS011;62576;55.694;37.494;2022-11-02T07:51:48;23.52;;;8.63;;
74213;SDS011;62576;55.694;37.494;2022-11-02T07:54:19;19.00;;;8.10;;
74213;SDS011;62576;55.694;37.494;2022-11-02T07:56:50;22.45;;;8.48;;
74213;SDS011;62576;55.694;37.494;2022-11-02T07:59:20;19.60;;;8.60;;
74213;SDS011;62576;55.694;37.494;2022-11-02T08:01:50;23.50;;;8.85;;
74213;SDS011;62576;55.694;37.494;2022-11-02T08:04:20;18.65;;;7.70;;
74213;SDS011;62576;55.694;37.494;2022-11-02T08:06:50;23.20;;;7.43;;
74213;SDS011;62576;55.694;37.494;2022-11-02T08:09:22;22.45;;;7.72;;
74213;SDS011;62576;55.694;37.494;2022-11-02T08:11:52;12.45;;;6.18;;
74213;SDS011;62576;55.694;37.494;2022-11-02T08:14:25;17.77;;;6.80;;
74213;SDS011;62576;55.694;37.494;2022-11-02T08:16:57;17.55;;;6.43;;
74213;SDS011;62576;55.694;37.494;2022-11-02T08:19:27;16.80;;;6.43;;
74213;SDS011;62576;55.694;37.494;2022-11-02T08:21:57;17.75;;;6.38;;
74213;SDS011;62576;55.694;37.494;2022-11-02T08:24:29;17.67;;;6.28;;
74213;SDS011;62576;55.694;37.494;2022-11-02T08:26:59;15.10;;;6.00;;
74213;SDS011;62576;55.694;37.494;2022-11-02T08:29:29;13.85;;;5.55;;
74213;SDS011;62576;55.694;37.494;2022-11-02T08:32:01;16.83;;;6.75;;
74213;SDS011;62576;55.694;37.494;2022-11-02T08:34:31;16.77;;;5.55;;
74213;SDS011;62576;55.694;37.494;2022-11-02T08:37:01;10.80;;;5.25;;
74213;SDS011;62576;55.694;37.494;2022-11-02T08:39:33;15.27;;;4.97;;
74213;SDS011;62576;55.694;37.494;2022-11-02T08:42:00;18.77;;;4.90;;
74213;SDS011;62576;55.694;37.494;2022-11-02T08:44:30;16.23;;;4.90;;
74213;SDS011;62576;55.694;37.494;2022-11-02T08:47:01;16.85;;;4.88;;
74213;SDS011;62576;55.694;37.494;2022-11-02T08:49:30;14.85;;;5.82;;
74213;SDS011;62576;55.694;37.494;2022-11-02T08:52:00;22.73;;;6.43;;
74213;SDS011;62576;55.694;37.494;2022-11-02T08:54:32;14.32;;;5.10;;
74213;SDS011;62576;55.694;37.494;2022-11-02T08:57:02;15.55;;;5.20;;
74213;SDS011;62576;55.694;37.494;2022-11-02T08:59:33;13.80;;;5.20;;
74213;SDS011;62576;55.694;37.494;2022-11-02T09:02:03;21.15;;;5.43;;
74213;SDS011;62576;55.694;37.494;2022-11-02T09:04:33;14.82;;;5.70;;
74213;SDS011;62576;55.694;37.494;2022-11-02T09:07:03;21.08;;;5.82;;
74213;SDS011;62576;55.694;37.494;2022-11-02T09:09:35;14.40;;;5.00;;
74213;SDS011;62576;55.694;37.494;2022-11-02T09:12:05;12.88;;;5.47;;
74213;SDS011;62576;55.694;37.494;2022-11-02T09:14:35;15.60;;;5.20;;
74213;SDS011;62576;55.694;37.494;2022-11-02T09:17:06;18.38;;;5.78;;
74213;SDS011;62576;55.694;37.494;2022-11-02T09:19:35;16.58;;;6.00;;
74213;SDS011;62576;55.694;37.494;2022-11-02T09:22:08;17.27;;;5.80;;
74213;SDS011;62576;55.694;37.494;2022-11-02T09:24:39;20.88;;;6.18;;
74213;SDS011;62576;55.694;37.494;2022-11-02T09:27:09;14.70;;;5.95;;
74213;SDS011;62576;55.694;37.494;2022-11-02T09:29:39;18.77;;;6.25;;
74213;SDS011;62576;55.694;37.494;2022-11-02T09:32:09;20.45;;;6.95;;
74213;SDS011;62576;55.694;37.494;2022-11-02T09:34:39;21.27;;;5.75;;
74213;SDS011;62576;55.694;37.494;2022-11-02T09:37:09;18.58;;;5.60;;
74213;SDS011;62576;55.694;37.494;2022-11-02T09:39:43;18.80;;;6.20;;
74213;SDS011;62576;55.694;37.494;2022-11-02T09:42:11;14.45;;;5.32;;
74213;SDS011;62576;55.694;37.494;2022-11-02T09:45:00;14.52;;;5.60;;
74213;SDS011;62576;55.694;37.494;2022-11-02T09:47:34;21.08;;;6.80;;
74213;SDS011;62576;55.694;37.494;2022-11-02T09:50:12;16.88;;;5.80;;
74213;SDS011;62576;55.694;37.494;2022-11-02T09:52:51;16.83;;;6.47;;
74213;SDS011;62576;55.694;37.494;2022-11-02T09:55:27;17.02;;;5.70;;
74213;SDS011;62576;55.694;37.494;2022-11-02T09:58:04;17.90;;;6.07;;
74213;SDS011;62576;55.694;37.494;2022-11-02T10:00:40;16.65;;;6.13;;
74213;SDS011;62576;55.694;37.494;2022-11-02T10:03:16;16.38;;;6.07;;
74213;SDS011;62576;55.694;37.494;2022-11-02T10:05:57;18.95;;;7.30;;
74213;SDS011;62576;55.694;37.494;2022-11-02T10:08:34;20.00;;;7.55;;
74213;SDS011;62576;55.694;37.494;2022-11-02T10:11:16;16.42;;;7.32;;
74213;SDS011;62576;55.694;37.494;2022-11-02T10:14:02;18.63;;;7.05;;
74213;SDS011;62576;55.694;37.494;2022-11-02T10:16:39;19.88;;;9.20;;
74213;SDS011;62576;55.694;37.494;2022-11-02T10:19:18;19.25;;;8.02;;
74213;SDS011;62576;55.694;37.494;2022-11-02T10:21:50;23.38;;;7.65;;
74213;SDS011;62576;55.694;37.494;2022-11-02T10:24:27;22.40;;;7.50;;
74213;SDS011;62576;55.694;37.494;2022-11-02T10:27:05;17.80;;;7.13;;
74213;SDS011;62576;55.694;37.494;2022-11-02T10:29:45;21.77;;;8.18;;
74213;SDS011;62576;55.694;37.494;2022-11-02T10:32:20;15.30;;;7.35;;
74213;SDS011;62576;55.694;37.494;2022-11-02T10:34:50;19.10;;;7.35;;
74213;SDS011;62576;55.694;37.494;2022-11-02T10:37:26;23.25;;;8.80;;
74213;SDS011;62576;55.694;37.494;2022-11-02T10:40:12;24.55;;;8.23;;
74213;SDS011;62576;55.694;37.494;2022-11-02T10:42:54;20.42;;;7.72;;
74213;SDS011;62576;55.694;37.494;2022-11-02T10:48:30;15.20;;;7.17;;
74213;SDS011;62576;55.694;37.494;2022-11-02T10:51:11;19.42;;;6.88;;
74213;SDS011;62576;55.694;37.494;2022-11-02T10:53:43;15.77;;;6.80;;
74213;SDS011;62576;55.694;37.494;2022-11-02T10:56:15;23.15;;;7.35;;
74213;SDS011;62576;55.694;37.494;2022-11-02T10:58:50;16.20;;;6.57;;
74213;SDS011;62576;55.694;37.494;2022-11-02T11:01:29;16.13;;;6.40;;
74213;SDS011;62576;55.694;37.494;2022-11-02T11:04:00;22.02;;;5.93;;
74213;SDS011;62576;55.694;37.494;2022-11-02T11:06:33;22.58;;;6.85;;
74213;SDS011;62576;55.694;37.494;2022-11-02T11:09:06;16.23;;;6.07;;
74213;SDS011;62576;55.694;37.494;2022-11-02T11:14:32;16.45;;;6.60;;
74213;SDS011;62576;55.694;37.494;2022-11-02T11:17:13;20.60;;;6.97;;
74213;SDS011;62576;55.694;37.494;2022-11-02T11:19:46;18.70;;;6.78;;
74213;SDS011;62576;55.694;37.494;2022-11-02T11:22:22;17.70;;;7.22;;
74213;SDS011;62576;55.694;37.494;2022-11-02T11:27:49;19.35;;;8.07;;
74213;SDS011;62576;55.694;37.494;2022-11-02T11:30:24;22.57;;;9.37;;
74213;SDS011;62576;55.694;37.494;2022-11-02T11:32:55;18.98;;;7.72;;
74213;SDS011;62576;55.694;37.494;2022-11-02T11:35:28;20.83;;;7.47;;
74213;SDS011;62576;55.694;37.494;2022-11-02T11:38:01;19.33;;;7.70;;
74213;SDS011;62576;55.694;37.494;2022-11-02T11:40:34;21.13;;;7.53;;
74213;SDS011;62576;55.694;37.494;2022-11-02T11:43:08;19.02;;;7.90;;
74213;SDS011;62576;55.694;37.494;2022-11-02T11:45:53;47.20;;;15.60;;
74213;SDS011;62576;55.694;37.494;2022-11-02T11:48:26;17.13;;;6.85;;
74213;SDS011;62576;55.694;37.494;2022-11-02T11:51:02;17.58;;;6.38;;
74213;SDS011;62576;55.694;37.494;2022-11-02T11:56:55;16.17;;;5.97;;
74213;SDS011;62576;55.694;37.494;2022-11-02T11:59:27;17.45;;;5.82;;
74213;SDS011;62576;55.694;37.494;2022-11-02T12:02:00;16.38;;;6.95;;
74213;SDS011;62576;55.694;37.494;2022-11-02T12:04:32;20.23;;;7.47;;
74213;SDS011;62576;55.694;37.494;2022-11-02T12:10:00;17.70;;;5.77;;
74213;SDS011;62576;55.694;37.494;2022-11-02T12:12:48;14.25;;;5.40;;
74213;SDS011;62576;55.694;37.494;2022-11-02T12:15:34;14.57;;;5.53;;
74213;SDS011;62576;55.694;37.494;2022-11-02T12:18:29;18.33;;;7.20;;
74213;SDS011;62576;55.694;37.494;2022-11-02T12:21:13;19.52;;;6.93;;
74213;SDS011;62576;55.694;37.494;2022-11-02T12:23:59;17.80;;;6.40;;
74213;SDS011;62576;55.694;37.494;2022-11-02T12:26:39;17.58;;;6.85;;
74213;SDS011;62576;55.694;37.494;2022-11-02T12:29:23;20.23;;;7.00;;
74213;SDS011;62576;55.694;37.494;2022-11-02T12:32:08;17.95;;;7.57;;
74213;SDS011;62576;55.694;37.494;2022-11-02T12:34:59;16.67;;;6.60;;
74213;SDS011;62576;55.694;37.494;2022-11-02T12:37:43;16.35;;;6.10;;
74213;SDS011;62576;55.694;37.494;2022-11-02T12:40:29;15.65;;;5.97;;
74213;SDS011;62576;55.694;37.494;2022-11-02T12:43:17;17.65;;;6.22;;
74213;SDS011;62576;55.694;37.494;2022-11-02T12:45:58;15.05;;;6.32;;
74213;SDS011;62576;55.694;37.494;2022-11-02T12:48:33;14.93;;;6.35;;
74213;SDS011;62576;55.694;37.494;2022-11-02T12:51:13;17.13;;;6.18;;
74213;SDS011;62576;55.694;37.494;2022-11-02T12:53:48;15.25;;;5.93;;
74213;SDS011;62576;55.694;37.494;2022-11-02T12:56:24;14.75;;;7.60;;
74213;SDS011;62576;55.694;37.494;2022-11-02T12:58:59;14.55;;;6.28;;
74213;SDS011;62576;55.694;37.494;2022-11-02T13:01:31;15.88;;;6.50;;
74213;SDS011;62576;55.694;37.494;2022-11-02T13:04:08;18.83;;;6.53;;
74213;SDS011;62576;55.694;37.494;2022-11-02T13:06:44;21.10;;;7.32;;
74213;SDS011;62576;55.694;37.494;2022-11-02T13:09:17;22.50;;;6.90;;
74213;SDS011;62576;55.694;37.494;2022-11-02T13:11:53;21.95;;;6.85;;
74213;SDS011;62576;55.694;37.494;2022-11-02T13:14:31;19.65;;;6.57;;
74213;SDS011;62576;55.694;37.494;2022-11-02T13:17:10;21.67;;;6.55;;
74213;SDS011;62576;55.694;37.494;2022-11-02T13:19:44;17.48;;;6.38;;
74213;SDS011;62576;55.694;37.494;2022-11-02T13:22:22;22.10;;;7.60;;
74213;SDS011;62576;55.694;37.494;2022-11-02T13:24:55;19.88;;;7.00;;
74213;SDS011;62576;55.694;37.494;2022-11-02T13:27:46;23.25;;;8.43;;
74213;SDS011;62576;55.694;37.494;2022-11-02T13:30:20;19.00;;;7.75;;
74213;SDS011;62576;55.694;37.494;2022-11-02T13:32:52;20.50;;;7.55;;
74213;SDS011;62576;55.694;37.494;2022-11-02T13:35:31;25.65;;;7.68;;
74213;SDS011;62576;55.694;37.494;2022-11-02T13:38:09;22.83;;;8.13;;
74213;SDS011;62576;55.694;37.494;2022-11-02T13:40:55;21.63;;;7.22;;
74213;SDS011;62576;55.694;37.494;2022-11-02T13:43:50;22.45;;;8.57;;
74213;SDS011;62576;55.694;37.494;2022-11-02T13:46:38;25.67;;;7.97;;
74213;SDS011;62576;55.694;37.494;2022-11-02T13:49:20;21.58;;;7.55;;
74213;SDS011;62576;55.694;37.494;2022-11-02T13:51:56;20.05;;;7.47;;
74213;SDS011;62576;55.694;37.494;2022-11-02T13:54:33;21.35;;;7.53;;
74213;SDS011;62576;55.694;37.494;2022-11-02T13:57:04;21.70;;;7.68;;
74213;SDS011;62576;55.694;37.494;2022-11-02T13:59:49;26.63;;;8.48;;
74213;SDS011;62576;55.694;37.494;2022-11-02T14:02:20;15.30;;;6.60;;
74213;SDS011;62576;55.694;37.494;2022-11-02T14:04:52;17.08;;;7.20;;
74213;SDS011;62576;55.694;37.494;2022-11-02T14:07:24;20.15;;;7.85;;
74213;SDS011;62576;55.694;37.494;2022-11-02T14:10:06;19.20;;;6.70;;
74213;SDS011;62576;55.694;37.494;2022-11-02T14:12:44;18.10;;;7.20;;
74213;SDS011;62576;55.694;37.494;2022-11-02T14:29:58;16.92;;;6.40;;
74213;SDS011;62576;55.694;37.494;2022-11-02T14:41:19;12.77;;;5.03;;
74213;SDS011;62576;55.694;37.494;2022-11-02T14:44:17;15.93;;;5.80;;
74213;SDS011;62576;55.694;37.494;2022-11-02T14:47:07;17.08;;;5.57;;
74213;SDS011;62576;55.694;37.494;2022-11-02T14:49:45;26.02;;;6.55;;
74213;SDS011;62576;55.694;37.494;2022-11-02T14:52:21;16.25;;;5.43;;
74213;SDS011;62576;55.694;37.494;2022-11-02T14:54:58;16.33;;;5.90;;
74213;SDS011;62576;55.694;37.494;2022-11-02T14:57:31;18.35;;;7.35;;
74213;SDS011;62576;55.694;37.494;2022-11-02T15:00:16;28.58;;;11.38;;
74213;SDS011;62576;55.694;37.494;2022-11-02T15:02:48;18.30;;;7.70;;
74213;SDS011;62576;55.694;37.494;2022-11-02T15:05:22;21.25;;;8.05;;
74213;SDS011;62576;55.694;37.494;2022-11-02T15:07:59;17.95;;;6.78;;
74213;SDS011;62576;55.694;37.494;2022-11-02T15:10:38;18.20;;;7.20;;
74213;SDS011;62576;55.694;37.494;2022-11-02T15:16:21;22.70;;;6.63;;
74213;SDS011;62576;55.694;37.494;2022-11-02T15:18:53;25.65;;;6.68;;
74213;SDS011;62576;55.694;37.494;2022-11-02T15:21:43;17.10;;;6.70;;
74213;SDS011;62576;55.694;37.494;2022-11-02T15:24:16;17.10;;;7.18;;
74213;SDS011;62576;55.694;37.494;2022-11-02T15:26:54;19.60;;;6.00;;
74213;SDS011;62576;55.694;37.494;2022-11-02T15:29:32;18.35;;;6.47;;
74213;SDS011;62576;55.694;37.494;2022-11-02T15:32:10;17.45;;;6.65;;
74213;SDS011;62576;55.694;37.494;2022-11-02T15:34:46;20.73;;;6.82;;
74213;SDS011;62576;55.694;37.494;2022-11-02T15:37:18;14.32;;;6.28;;
74213;SDS011;62576;55.694;37.494;2022-11-02T15:39:52;19.67;;;7.28;;
74213;SDS011;62576;55.694;37.494;2022-11-02T15:42:28;18.92;;;7.65;;
74213;SDS011;62576;55.694;37.494;2022-11-02T15:48:10;20.48;;;6.30;;
74213;SDS011;62576;55.694;37.494;2022-11-02T15:50:56;18.40;;;6.32;;
74213;SDS011;62576;55.694;37.494;2022-11-02T15:59:44;19.75;;;7.47;;
74213;SDS011;62576;55.694;37.494;2022-11-02T16:02:37;15.70;;;6.07;;
74213;SDS011;62576;55.694;37.494;2022-11-02T16:05:17;17.48;;;6.70;;